sensor_id;sensor_type;location;lat;lon;timestamp;temperature;humidity
67196;DHT22;54122;53.538;49.366;2022-07-01T00:00:38;13.00;70.30
67196;DHT22;54122;53.538;49.366;2022-07-01T00:03:04;13.00;70.30
67196;DHT22;54122;53.538;49.366;2022-07-01T00:05:30;12.90;70.50
67196;DHT22;54122;53.538;49.366;2022-07-01T00:07:57;12.90;70.50
67196;DHT22;54122;53.538;49.366;2022-07-01T00:10:23;13.00;70.70
67196;DHT22;54122;53.538;49.366;2022-07-01T00:12:49;13.00;70.70
67196;DHT22;54122;53.538;49.366;2022-07-01T00:15:15;13.00;70.80
67196;DHT22;54122;53.538;49.366;2022-07-01T00:17:41;13.00;70.80
67196;DHT22;54122;53.538;49.366;2022-07-01T00:20:09;13.00;71.30
67196;DHT22;54122;53.538;49.366;2022-07-01T00:22:36;12.90;70.80
67196;DHT22;54122;53.538;49.366;2022-07-01T00:25:02;12.90;70.70
67196;DHT22;54122;53.538;49.366;2022-07-01T00:27:29;12.90;70.80
67196;DHT22;54122;53.538;49.366;2022-07-01T00:29:55;12.90;70.90
67196;DHT22;54122;53.538;49.366;2022-07-01T00:32:21;12.80;70.90
67196;DHT22;54122;53.538;49.366;2022-07-01T00:34:47;12.80;70.90
67196;DHT22;54122;53.538;49.366;2022-07-01T00:37:14;12.80;71.00
67196;DHT22;54122;53.538;49.366;2022-07-01T00:39:40;12.80;71.10
67196;DHT22;54122;53.538;49.366;2022-07-01T00:42:06;12.80;71.10
67196;DHT22;54122;53.538;49.366;2022-07-01T00:44:32;12.80;71.20
67196;DHT22;54122;53.538;49.366;2022-07-01T00:47:01;12.90;71.00
67196;DHT22;54122;53.538;49.366;2022-07-01T00:49:29;12.90;71.00
67196;DHT22;54122;53.538;49.366;2022-07-01T00:51:55;12.90;71.40
67196;DHT22;54122;53.538;49.366;2022-07-01T00:54:22;12.90;71.20
67196;DHT22;54122;53.538;49.366;2022-07-01T00:56:49;12.80;71.40
67196;DHT22;54122;53.538;49.366;2022-07-01T00:59:15;12.80;71.30
67196;DHT22;54122;53.538;49.366;2022-07-01T01:01:42;12.80;71.50
67196;DHT22;54122;53.538;49.366;2022-07-01T01:04:08;12.90;71.50
67196;DHT22;54122;53.538;49.366;2022-07-01T01:06:34;12.90;71.40
67196;DHT22;54122;53.538;49.366;2022-07-01T01:09:00;13.00;71.10
67196;DHT22;54122;53.538;49.366;2022-07-01T01:11:28;13.00;70.90
67196;DHT22;54122;53.538;49.366;2022-07-01T01:13:54;13.10;70.80
67196;DHT22;54122;53.538;49.366;2022-07-01T01:16:22;13.10;70.80
67196;DHT22;54122;53.538;49.366;2022-07-01T01:18:48;13.10;70.50
67196;DHT22;54122;53.538;49.366;2022-07-01T01:21:15;13.10;70.60
67196;DHT22;54122;53.538;49.366;2022-07-01T01:23:42;13.20;70.40
67196;DHT22;54122;53.538;49.366;2022-07-01T01:26:21;13.10;70.70
67196;DHT22;54122;53.538;49.366;2022-07-01T01:28:51;13.10;71.70
67196;DHT22;54122;53.538;49.366;2022-07-01T01:31:26;12.90;72.60
67196;DHT22;54122;53.538;49.366;2022-07-01T01:33:54;12.80;73.50
67196;DHT22;54122;53.538;49.366;2022-07-01T01:36:20;12.70;74.20
67196;DHT22;54122;53.538;49.366;2022-07-01T01:38:46;12.60;75.20
67196;DHT22;54122;53.538;49.366;2022-07-01T01:41:13;12.50;75.50
67196;DHT22;54122;53.538;49.366;2022-07-01T01:43:39;12.50;75.80
67196;DHT22;54122;53.538;49.366;2022-07-01T01:46:06;12.50;76.20
67196;DHT22;54122;53.538;49.366;2022-07-01T01:48:32;12.50;76.50
67196;DHT22;54122;53.538;49.366;2022-07-01T01:50:58;12.50;76.90
67196;DHT22;54122;53.538;49.366;2022-07-01T01:53:24;12.60;77.00
67196;DHT22;54122;53.538;49.366;2022-07-01T01:55:51;12.60;77.30
67196;DHT22;54122;53.538;49.366;2022-07-01T01:58:17;12.60;77.90
67196;DHT22;54122;53.538;49.366;2022-07-01T02:00:43;12.50;77.70
67196;DHT22;54122;53.538;49.366;2022-07-01T02:03:10;12.50;78.40
67196;DHT22;54122;53.538;49.366;2022-07-01T02:05:36;12.60;78.30
67196;DHT22;54122;53.538;49.366;2022-07-01T02:08:03;12.60;78.20
67196;DHT22;54122;53.538;49.366;2022-07-01T02:10:30;12.60;78.70
67196;DHT22;54122;53.538;49.366;2022-07-01T02:12:56;12.70;78.00
67196;DHT22;54122;53.538;49.366;2022-07-01T02:15:23;12.80;78.00
67196;DHT22;54122;53.538;49.366;2022-07-01T02:17:49;12.80;77.80
67196;DHT22;54122;53.538;49.366;2022-07-01T02:20:17;12.80;77.80
67196;DHT22;54122;53.538;49.366;2022-07-01T02:22:43;12.90;78.80
67196;DHT22;54122;53.538;49.366;2022-07-01T02:25:09;13.00;78.90
67196;DHT22;54122;53.538;49.366;2022-07-01T02:27:36;13.00;78.70
67196;DHT22;54122;53.538;49.366;2022-07-01T02:30:04;13.00;78.40
67196;DHT22;54122;53.538;49.366;2022-07-01T02:32:31;13.00;78.80
67196;DHT22;54122;53.538;49.366;2022-07-01T02:34:58;12.90;79.60
67196;DHT22;54122;53.538;49.366;2022-07-01T02:37:24;12.90;79.10
67196;DHT22;54122;53.538;49.366;2022-07-01T02:39:50;12.80;79.30
67196;DHT22;54122;53.538;49.366;2022-07-01T02:42:16;12.70;79.50
67196;DHT22;54122;53.538;49.366;2022-07-01T02:44:49;12.60;79.70
67196;DHT22;54122;53.538;49.366;2022-07-01T02:47:15;12.50;81.10
67196;DHT22;54122;53.538;49.366;2022-07-01T02:49:41;12.50;82.70
67196;DHT22;54122;53.538;49.366;2022-07-01T02:52:07;12.50;83.30
67196;DHT22;54122;53.538;49.366;2022-07-01T02:54:34;12.60;83.10
67196;DHT22;54122;53.538;49.366;2022-07-01T02:57:00;12.60;84.50
67196;DHT22;54122;53.538;49.366;2022-07-01T02:59:27;12.60;84.50
67196;DHT22;54122;53.538;49.366;2022-07-01T03:01:54;12.60;85.10
67196;DHT22;54122;53.538;49.366;2022-07-01T03:04:20;12.60;85.30
67196;DHT22;54122;53.538;49.366;2022-07-01T03:06:46;12.60;85.90
67196;DHT22;54122;53.538;49.366;2022-07-01T03:09:12;12.60;86.20
67196;DHT22;54122;53.538;49.366;2022-07-01T03:11:38;12.60;86.60
67196;DHT22;54122;53.538;49.366;2022-07-01T03:14:05;12.60;86.80
67196;DHT22;54122;53.538;49.366;2022-07-01T03:16:31;12.70;86.80
67196;DHT22;54122;53.538;49.366;2022-07-01T03:18:57;12.70;86.70
67196;DHT22;54122;53.538;49.366;2022-07-01T03:21:24;12.70;86.90
67196;DHT22;54122;53.538;49.366;2022-07-01T03:23:50;12.70;86.40
67196;DHT22;54122;53.538;49.366;2022-07-01T03:26:17;12.60;85.80
67196;DHT22;54122;53.538;49.366;2022-07-01T03:28:43;12.40;86.80
67196;DHT22;54122;53.538;49.366;2022-07-01T03:31:09;12.40;87.80
67196;DHT22;54122;53.538;49.366;2022-07-01T03:33:35;12.40;87.20
67196;DHT22;54122;53.538;49.366;2022-07-01T03:36:02;12.40;87.40
67196;DHT22;54122;53.538;49.366;2022-07-01T03:38:29;12.30;87.50
67196;DHT22;54122;53.538;49.366;2022-07-01T03:40:55;12.30;88.20
67196;DHT22;54122;53.538;49.366;2022-07-01T03:43:21;12.30;88.00
67196;DHT22;54122;53.538;49.366;2022-07-01T03:45:47;12.30;87.50
67196;DHT22;54122;53.538;49.366;2022-07-01T03:48:13;12.30;87.80
67196;DHT22;54122;53.538;49.366;2022-07-01T03:50:39;12.30;87.80
67196;DHT22;54122;53.538;49.366;2022-07-01T03:53:06;12.30;88.70
67196;DHT22;54122;53.538;49.366;2022-07-01T03:55:50;12.40;87.90
67196;DHT22;54122;53.538;49.366;2022-07-01T03:58:16;12.30;87.40
67196;DHT22;54122;53.538;49.366;2022-07-01T04:00:43;12.30;87.80
67196;DHT22;54122;53.538;49.366;2022-07-01T04:03:09;12.40;88.70
67196;DHT22;54122;53.538;49.366;2022-07-01T04:05:36;12.50;88.10
67196;DHT22;54122;53.538;49.366;2022-07-01T04:08:07;12.60;87.90
67196;DHT22;54122;53.538;49.366;2022-07-01T04:10:34;12.60;87.30
67196;DHT22;54122;53.538;49.366;2022-07-01T04:13:02;12.70;86.90
67196;DHT22;54122;53.538;49.366;2022-07-01T04:15:29;12.60;86.50
67196;DHT22;54122;53.538;49.366;2022-07-01T04:17:55;12.60;86.70
67196;DHT22;54122;53.538;49.366;2022-07-01T04:20:21;12.60;86.60
67196;DHT22;54122;53.538;49.366;2022-07-01T04:22:48;12.60;87.70
67196;DHT22;54122;53.538;49.366;2022-07-01T04:25:14;12.40;86.50
67196;DHT22;54122;53.538;49.366;2022-07-01T04:27:40;12.30;87.10
67196;DHT22;54122;53.538;49.366;2022-07-01T04:30:07;12.20;87.40
67196;DHT22;54122;53.538;49.366;2022-07-01T04:32:33;12.10;88.20
67196;DHT22;54122;53.538;49.366;2022-07-01T04:34:59;12.10;88.40
67196;DHT22;54122;53.538;49.366;2022-07-01T04:37:26;12.00;88.80
67196;DHT22;54122;53.538;49.366;2022-07-01T04:39:52;12.00;88.50
67196;DHT22;54122;53.538;49.366;2022-07-01T04:42:18;11.90;89.40
67196;DHT22;54122;53.538;49.366;2022-07-01T04:44:46;12.00;90.00
67196;DHT22;54122;53.538;49.366;2022-07-01T04:47:12;12.10;90.00
67196;DHT22;54122;53.538;49.366;2022-07-01T04:49:39;12.20;89.90
67196;DHT22;54122;53.538;49.366;2022-07-01T04:52:05;12.20;89.30
67196;DHT22;54122;53.538;49.366;2022-07-01T04:54:31;12.30;89.30
67196;DHT22;54122;53.538;49.366;2022-07-01T04:56:57;12.30;89.40
67196;DHT22;54122;53.538;49.366;2022-07-01T04:59:24;12.30;89.70
67196;DHT22;54122;53.538;49.366;2022-07-01T05:01:50;12.40;89.80
67196;DHT22;54122;53.538;49.366;2022-07-01T05:04:17;12.50;89.80
67196;DHT22;54122;53.538;49.366;2022-07-01T05:06:44;12.50;89.80
67196;DHT22;54122;53.538;49.366;2022-07-01T05:09:10;12.50;89.50
67196;DHT22;54122;53.538;49.366;2022-07-01T05:11:37;12.40;89.30
67196;DHT22;54122;53.538;49.366;2022-07-01T05:14:05;12.40;90.00
67196;DHT22;54122;53.538;49.366;2022-07-01T05:16:32;12.30;90.10
67196;DHT22;54122;53.538;49.366;2022-07-01T05:19:00;12.30;90.20
67196;DHT22;54122;53.538;49.366;2022-07-01T05:21:44;12.20;90.30
67196;DHT22;54122;53.538;49.366;2022-07-01T05:24:24;12.20;90.50
67196;DHT22;54122;53.538;49.366;2022-07-01T05:26:50;12.20;90.70
67196;DHT22;54122;53.538;49.366;2022-07-01T05:29:17;12.20;90.90
67196;DHT22;54122;53.538;49.366;2022-07-01T05:31:43;12.20;90.90
67196;DHT22;54122;53.538;49.366;2022-07-01T05:34:09;12.20;90.80
67196;DHT22;54122;53.538;49.366;2022-07-01T05:36:36;12.10;90.90
67196;DHT22;54122;53.538;49.366;2022-07-01T05:39:02;12.10;90.80
67196;DHT22;54122;53.538;49.366;2022-07-01T05:41:28;12.10;91.30
67196;DHT22;54122;53.538;49.366;2022-07-01T05:43:55;12.10;91.40
67196;DHT22;54122;53.538;49.366;2022-07-01T05:46:21;12.20;91.40
67196;DHT22;54122;53.538;49.366;2022-07-01T05:48:47;12.30;91.50
67196;DHT22;54122;53.538;49.366;2022-07-01T05:51:13;12.30;91.30
67196;DHT22;54122;53.538;49.366;2022-07-01T05:53:40;12.40;91.20
67196;DHT22;54122;53.538;49.366;2022-07-01T05:56:07;12.40;91.20
67196;DHT22;54122;53.538;49.366;2022-07-01T05:58:33;12.40;91.40
67196;DHT22;54122;53.538;49.366;2022-07-01T06:00:59;12.40;91.50
67196;DHT22;54122;53.538;49.366;2022-07-01T06:03:25;12.50;91.50
67196;DHT22;54122;53.538;49.366;2022-07-01T06:05:51;12.50;91.40
67196;DHT22;54122;53.538;49.366;2022-07-01T06:08:18;12.50;91.40
67196;DHT22;54122;53.538;49.366;2022-07-01T06:10:44;12.60;91.60
67196;DHT22;54122;53.538;49.366;2022-07-01T06:13:10;12.60;91.40
67196;DHT22;54122;53.538;49.366;2022-07-01T06:15:36;12.80;91.60
67196;DHT22;54122;53.538;49.366;2022-07-01T06:18:03;12.90;91.60
67196;DHT22;54122;53.538;49.366;2022-07-01T06:20:29;12.90;91.20
67196;DHT22;54122;53.538;49.366;2022-07-01T06:22:55;13.00;91.20
67196;DHT22;54122;53.538;49.366;2022-07-01T06:25:23;13.00;91.20
67196;DHT22;54122;53.538;49.366;2022-07-01T06:27:49;13.10;91.70
67196;DHT22;54122;53.538;49.366;2022-07-01T06:30:15;13.20;91.40
67196;DHT22;54122;53.538;49.366;2022-07-01T06:32:41;13.20;90.80
67196;DHT22;54122;53.538;49.366;2022-07-01T06:35:08;13.20;90.80
67196;DHT22;54122;53.538;49.366;2022-07-01T06:37:35;13.20;90.90
67196;DHT22;54122;53.538;49.366;2022-07-01T06:40:04;13.30;90.90
67196;DHT22;54122;53.538;49.366;2022-07-01T06:42:32;13.40;91.10
67196;DHT22;54122;53.538;49.366;2022-07-01T06:44:58;13.40;90.70
67196;DHT22;54122;53.538;49.366;2022-07-01T06:47:24;13.50;90.80
67196;DHT22;54122;53.538;49.366;2022-07-01T06:49:51;13.60;90.60
67196;DHT22;54122;53.538;49.366;2022-07-01T06:52:17;13.70;90.50
67196;DHT22;54122;53.538;49.366;2022-07-01T06:54:43;13.70;90.70
67196;DHT22;54122;53.538;49.366;2022-07-01T06:57:09;13.90;90.40
67196;DHT22;54122;53.538;49.366;2022-07-01T06:59:36;13.90;89.90
67196;DHT22;54122;53.538;49.366;2022-07-01T07:02:02;14.00;89.50
67196;DHT22;54122;53.538;49.366;2022-07-01T07:04:28;13.90;89.60
67196;DHT22;54122;53.538;49.366;2022-07-01T07:06:54;13.90;89.90
67196;DHT22;54122;53.538;49.366;2022-07-01T07:09:20;13.90;90.00
67196;DHT22;54122;53.538;49.366;2022-07-01T07:11:47;13.90;89.80
67196;DHT22;54122;53.538;49.366;2022-07-01T07:14:13;13.90;89.40
67196;DHT22;54122;53.538;49.366;2022-07-01T07:16:39;13.90;89.20
67196;DHT22;54122;53.538;49.366;2022-07-01T07:19:05;13.80;89.80
67196;DHT22;54122;53.538;49.366;2022-07-01T07:21:31;13.80;90.10
67196;DHT22;54122;53.538;49.366;2022-07-01T07:23:57;13.80;90.20
67196;DHT22;54122;53.538;49.366;2022-07-01T07:26:24;13.90;90.40
67196;DHT22;54122;53.538;49.366;2022-07-01T07:28:51;13.90;90.20
67196;DHT22;54122;53.538;49.366;2022-07-01T07:31:17;13.90;90.00
67196;DHT22;54122;53.538;49.366;2022-07-01T07:33:43;13.90;90.10
67196;DHT22;54122;53.538;49.366;2022-07-01T07:36:09;13.90;90.00
67196;DHT22;54122;53.538;49.366;2022-07-01T07:38:39;13.90;90.10
67196;DHT22;54122;53.538;49.366;2022-07-01T07:41:05;14.20;90.10
67196;DHT22;54122;53.538;49.366;2022-07-01T07:43:32;14.30;89.80
67196;DHT22;54122;53.538;49.366;2022-07-01T07:45:58;14.40;88.40
67196;DHT22;54122;53.538;49.366;2022-07-01T07:48:24;14.50;88.60
67196;DHT22;54122;53.538;49.366;2022-07-01T07:50:51;14.60;88.00
67196;DHT22;54122;53.538;49.366;2022-07-01T07:53:17;14.70;88.80
67196;DHT22;54122;53.538;49.366;2022-07-01T07:55:43;14.90;87.90
67196;DHT22;54122;53.538;49.366;2022-07-01T07:58:09;15.00;87.10
67196;DHT22;54122;53.538;49.366;2022-07-01T08:00:35;15.20;86.50
67196;DHT22;54122;53.538;49.366;2022-07-01T08:03:02;15.50;85.40
67196;DHT22;54122;53.538;49.366;2022-07-01T08:05:28;15.70;84.00
67196;DHT22;54122;53.538;49.366;2022-07-01T08:08:17;16.00;83.30
67196;DHT22;54122;53.538;49.366;2022-07-01T08:10:56;16.70;82.60
67196;DHT22;54122;53.538;49.366;2022-07-01T08:13:22;17.00;77.70
67196;DHT22;54122;53.538;49.366;2022-07-01T08:15:49;16.90;76.90
67196;DHT22;54122;53.538;49.366;2022-07-01T08:18:16;17.00;77.00
67196;DHT22;54122;53.538;49.366;2022-07-01T08:20:45;17.10;76.00
67196;DHT22;54122;53.538;49.366;2022-07-01T08:23:20;17.20;74.20
67196;DHT22;54122;53.538;49.366;2022-07-01T08:25:49;17.50;73.60
67196;DHT22;54122;53.538;49.366;2022-07-01T08:28:16;17.80;72.40
67196;DHT22;54122;53.538;49.366;2022-07-01T08:30:43;18.30;71.90
67196;DHT22;54122;53.538;49.366;2022-07-01T08:33:16;18.90;70.10
67196;DHT22;54122;53.538;49.366;2022-07-01T08:35:44;19.30;68.10
67196;DHT22;54122;53.538;49.366;2022-07-01T08:38:13;19.50;67.30
67196;DHT22;54122;53.538;49.366;2022-07-01T08:40:41;20.10;65.30
67196;DHT22;54122;53.538;49.366;2022-07-01T08:43:10;20.90;62.00
67196;DHT22;54122;53.538;49.366;2022-07-01T08:45:37;20.80;59.90
67196;DHT22;54122;53.538;49.366;2022-07-01T08:48:04;20.80;60.00
67196;DHT22;54122;53.538;49.366;2022-07-01T08:50:35;20.70;59.80
67196;DHT22;54122;53.538;49.366;2022-07-01T08:53:01;20.40;60.70
67196;DHT22;54122;53.538;49.366;2022-07-01T08:55:28;20.30;61.10
67196;DHT22;54122;53.538;49.366;2022-07-01T08:57:59;20.10;60.60
67196;DHT22;54122;53.538;49.366;2022-07-01T09:00:50;20.00;61.30
67196;DHT22;54122;53.538;49.366;2022-07-01T09:03:20;20.10;62.40
67196;DHT22;54122;53.538;49.366;2022-07-01T09:05:53;20.50;62.10
67196;DHT22;54122;53.538;49.366;2022-07-01T09:08:28;20.80;60.00
67196;DHT22;54122;53.538;49.366;2022-07-01T09:11:26;21.00;59.60
67196;DHT22;54122;53.538;49.366;2022-07-01T09:16:44;21.10;56.80
67196;DHT22;54122;53.538;49.366;2022-07-01T09:19:12;20.90;58.00
67196;DHT22;54122;53.538;49.366;2022-07-01T09:21:38;20.80;57.20
67196;DHT22;54122;53.538;49.366;2022-07-01T09:24:34;20.70;57.60
67196;DHT22;54122;53.538;49.366;2022-07-01T09:27:14;20.60;57.50
67196;DHT22;54122;53.538;49.366;2022-07-01T09:29:59;20.70;58.30
67196;DHT22;54122;53.538;49.366;2022-07-01T09:32:28;20.80;57.80
67196;DHT22;54122;53.538;49.366;2022-07-01T09:34:56;20.60;57.50
67196;DHT22;54122;53.538;49.366;2022-07-01T09:37:23;20.60;57.30
67196;DHT22;54122;53.538;49.366;2022-07-01T09:39:55;20.80;57.60
67196;DHT22;54122;53.538;49.366;2022-07-01T09:42:23;21.10;57.50
67196;DHT22;54122;53.538;49.366;2022-07-01T09:44:54;21.20;56.40
67196;DHT22;54122;53.538;49.366;2022-07-01T09:47:25;21.20;55.20
67196;DHT22;54122;53.538;49.366;2022-07-01T09:50:05;20.90;55.70
67196;DHT22;54122;53.538;49.366;2022-07-01T09:52:34;20.40;56.80
67196;DHT22;54122;53.538;49.366;2022-07-01T09:55:03;19.80;59.60
67196;DHT22;54122;53.538;49.366;2022-07-01T09:57:29;19.70;61.00
67196;DHT22;54122;53.538;49.366;2022-07-01T09:59:55;19.70;60.50
67196;DHT22;54122;53.538;49.366;2022-07-01T10:02:22;19.70;60.80
67196;DHT22;54122;53.538;49.366;2022-07-01T10:04:56;19.70;60.80
67196;DHT22;54122;53.538;49.366;2022-07-01T10:13:16;19.70;62.30
67196;DHT22;54122;53.538;49.366;2022-07-01T10:15:44;19.70;62.30
67196;DHT22;54122;53.538;49.366;2022-07-01T10:18:25;19.60;62.50
67196;DHT22;54122;53.538;49.366;2022-07-01T10:20:52;19.40;62.60
67196;DHT22;54122;53.538;49.366;2022-07-01T10:23:22;19.20;64.20
67196;DHT22;54122;53.538;49.366;2022-07-01T10:25:50;19.20;65.10
67196;DHT22;54122;53.538;49.366;2022-07-01T10:30:53;19.00;66.40
67196;DHT22;54122;53.538;49.366;2022-07-01T10:33:33;18.80;67.20
67196;DHT22;54122;53.538;49.366;2022-07-01T10:36:11;18.70;67.60
67196;DHT22;54122;53.538;49.366;2022-07-01T10:41:27;18.50;64.80
67196;DHT22;54122;53.538;49.366;2022-07-01T10:43:54;18.40;65.00
67196;DHT22;54122;53.538;49.366;2022-07-01T10:47:01;18.40;65.20
67196;DHT22;54122;53.538;49.366;2022-07-01T10:52:12;18.40;65.90
67196;DHT22;54122;53.538;49.366;2022-07-01T10:59:45;18.20;66.50
67196;DHT22;54122;53.538;49.366;2022-07-01T11:02:12;18.10;67.10
67196;DHT22;54122;53.538;49.366;2022-07-01T11:04:38;18.10;68.20
67196;DHT22;54122;53.538;49.366;2022-07-01T11:07:05;18.00;69.60
67196;DHT22;54122;53.538;49.366;2022-07-01T11:09:31;18.00;69.60
67196;DHT22;54122;53.538;49.366;2022-07-01T11:11:57;17.90;70.10
67196;DHT22;54122;53.538;49.366;2022-07-01T11:14:23;17.80;71.60
67196;DHT22;54122;53.538;49.366;2022-07-01T11:16:51;17.30;71.90
67196;DHT22;54122;53.538;49.366;2022-07-01T11:19:18;16.40;71.80
67196;DHT22;54122;53.538;49.366;2022-07-01T11:21:51;15.70;75.00
67196;DHT22;54122;53.538;49.366;2022-07-01T11:24:19;15.30;78.10
67196;DHT22;54122;53.538;49.366;2022-07-01T11:26:46;14.90;79.40
67196;DHT22;54122;53.538;49.366;2022-07-01T11:29:13;14.50;82.00
67196;DHT22;54122;53.538;49.366;2022-07-01T11:31:40;14.30;85.40
67196;DHT22;54122;53.538;49.366;2022-07-01T11:34:06;14.30;86.70
67196;DHT22;54122;53.538;49.366;2022-07-01T11:36:33;14.30;87.60
67196;DHT22;54122;53.538;49.366;2022-07-01T11:39:19;14.40;89.60
67196;DHT22;54122;53.538;49.366;2022-07-01T11:42:03;14.50;89.90
67196;DHT22;54122;53.538;49.366;2022-07-01T11:47:02;14.70;90.60
67196;DHT22;54122;53.538;49.366;2022-07-01T11:49:29;14.80;90.30
67196;DHT22;54122;53.538;49.366;2022-07-01T11:51:58;14.90;90.00
67196;DHT22;54122;53.538;49.366;2022-07-01T11:54:25;14.90;90.70
67196;DHT22;54122;53.538;49.366;2022-07-01T11:56:51;15.10;91.00
67196;DHT22;54122;53.538;49.366;2022-07-01T11:59:18;15.40;91.10
67196;DHT22;54122;53.538;49.366;2022-07-01T12:01:54;15.60;90.30
67196;DHT22;54122;53.538;49.366;2022-07-01T12:04:21;15.80;90.30
67196;DHT22;54122;53.538;49.366;2022-07-01T12:06:48;15.90;90.20
67196;DHT22;54122;53.538;49.366;2022-07-01T12:09:17;15.90;90.40
67196;DHT22;54122;53.538;49.366;2022-07-01T12:11:45;15.90;90.80
67196;DHT22;54122;53.538;49.366;2022-07-01T12:14:18;15.90;90.60
67196;DHT22;54122;53.538;49.366;2022-07-01T12:16:44;15.90;90.60
67196;DHT22;54122;53.538;49.366;2022-07-01T12:19:10;15.50;84.90
67196;DHT22;54122;53.538;49.366;2022-07-01T12:21:52;14.80;89.10
67196;DHT22;54122;53.538;49.366;2022-07-01T12:24:19;14.50;91.40
67196;DHT22;54122;53.538;49.366;2022-07-01T12:29:15;14.60;92.80
67196;DHT22;54122;53.538;49.366;2022-07-01T12:31:42;14.80;91.20
67196;DHT22;54122;53.538;49.366;2022-07-01T12:34:08;14.90;90.60
67196;DHT22;54122;53.538;49.366;2022-07-01T12:36:34;15.00;90.30
67196;DHT22;54122;53.538;49.366;2022-07-01T12:39:06;15.00;90.20
67196;DHT22;54122;53.538;49.366;2022-07-01T12:41:34;15.20;90.20
67196;DHT22;54122;53.538;49.366;2022-07-01T12:44:20;15.30;90.00
67196;DHT22;54122;53.538;49.366;2022-07-01T12:46:47;15.40;89.60
67196;DHT22;54122;53.538;49.366;2022-07-01T12:49:24;15.50;89.10
67196;DHT22;54122;53.538;49.366;2022-07-01T12:51:52;15.70;87.50
67196;DHT22;54122;53.538;49.366;2022-07-01T12:54:31;15.80;86.70
67196;DHT22;54122;53.538;49.366;2022-07-01T12:56:58;15.90;85.50
67196;DHT22;54122;53.538;49.366;2022-07-01T12:59:24;15.80;84.90
67196;DHT22;54122;53.538;49.366;2022-07-01T13:01:51;15.80;83.70
67196;DHT22;54122;53.538;49.366;2022-07-01T13:04:24;15.70;83.80
67196;DHT22;54122;53.538;49.366;2022-07-01T13:06:51;15.60;83.60
67196;DHT22;54122;53.538;49.366;2022-07-01T13:09:17;15.60;84.10
67196;DHT22;54122;53.538;49.366;2022-07-01T13:11:43;15.60;84.70
67196;DHT22;54122;53.538;49.366;2022-07-01T13:14:10;15.60;85.00
67196;DHT22;54122;53.538;49.366;2022-07-01T13:16:36;15.40;86.10
67196;DHT22;54122;53.538;49.366;2022-07-01T13:19:02;15.30;87.70
67196;DHT22;54122;53.538;49.366;2022-07-01T13:21:29;15.20;88.40
67196;DHT22;54122;53.538;49.366;2022-07-01T13:23:55;15.10;88.10
67196;DHT22;54122;53.538;49.366;2022-07-01T13:26:22;15.00;88.40
67196;DHT22;54122;53.538;49.366;2022-07-01T13:28:51;14.90;88.80
67196;DHT22;54122;53.538;49.366;2022-07-01T13:31:17;14.80;89.00
67196;DHT22;54122;53.538;49.366;2022-07-01T13:33:43;14.80;89.90
67196;DHT22;54122;53.538;49.366;2022-07-01T13:36:09;14.80;90.30
67196;DHT22;54122;53.538;49.366;2022-07-01T13:38:37;14.80;90.30
67196;DHT22;54122;53.538;49.366;2022-07-01T13:41:03;14.90;90.40
67196;DHT22;54122;53.538;49.366;2022-07-01T13:43:29;15.00;90.20
67196;DHT22;54122;53.538;49.366;2022-07-01T13:45:56;15.10;89.70
67196;DHT22;54122;53.538;49.366;2022-07-01T13:48:22;15.20;89.90
67196;DHT22;54122;53.538;49.366;2022-07-01T13:50:48;15.30;90.00
67196;DHT22;54122;53.538;49.366;2022-07-01T13:53:14;15.50;88.80
67196;DHT22;54122;53.538;49.366;2022-07-01T13:55:41;15.60;88.60
67196;DHT22;54122;53.538;49.366;2022-07-01T13:58:07;15.80;87.60
67196;DHT22;54122;53.538;49.366;2022-07-01T14:00:33;15.90;86.60
67196;DHT22;54122;53.538;49.366;2022-07-01T14:02:59;15.90;85.30
67196;DHT22;54122;53.538;49.366;2022-07-01T14:05:26;16.00;85.20
67196;DHT22;54122;53.538;49.366;2022-07-01T14:07:52;16.00;84.30
67196;DHT22;54122;53.538;49.366;2022-07-01T14:10:18;16.10;84.40
67196;DHT22;54122;53.538;49.366;2022-07-01T14:12:44;16.20;83.80
67196;DHT22;54122;53.538;49.366;2022-07-01T14:15:10;16.20;83.20
67196;DHT22;54122;53.538;49.366;2022-07-01T14:17:37;16.20;83.10
67196;DHT22;54122;53.538;49.366;2022-07-01T14:20:03;16.30;83.00
67196;DHT22;54122;53.538;49.366;2022-07-01T14:22:31;16.30;82.30
67196;DHT22;54122;53.538;49.366;2022-07-01T14:24:57;16.30;82.50
67196;DHT22;54122;53.538;49.366;2022-07-01T14:27:23;16.30;82.50
67196;DHT22;54122;53.538;49.366;2022-07-01T14:29:49;16.30;82.10
67196;DHT22;54122;53.538;49.366;2022-07-01T14:32:16;16.20;82.80
67196;DHT22;54122;53.538;49.366;2022-07-01T14:34:42;16.20;82.50
67196;DHT22;54122;53.538;49.366;2022-07-01T14:37:08;16.10;82.10
67196;DHT22;54122;53.538;49.366;2022-07-01T14:39:34;16.10;82.30
67196;DHT22;54122;53.538;49.366;2022-07-01T14:42:01;16.00;82.50
67196;DHT22;54122;53.538;49.366;2022-07-01T14:44:27;15.90;82.60
67196;DHT22;54122;53.538;49.366;2022-07-01T14:46:54;15.80;83.20
67196;DHT22;54122;53.538;49.366;2022-07-01T14:49:21;15.70;83.80
67196;DHT22;54122;53.538;49.366;2022-07-01T14:51:51;15.60;84.30
67196;DHT22;54122;53.538;49.366;2022-07-01T14:54:17;15.50;85.10
67196;DHT22;54122;53.538;49.366;2022-07-01T14:56:43;15.40;85.50
67196;DHT22;54122;53.538;49.366;2022-07-01T14:59:11;15.30;86.50
67196;DHT22;54122;53.538;49.366;2022-07-01T15:01:37;15.30;87.00
67196;DHT22;54122;53.538;49.366;2022-07-01T15:04:04;15.30;86.90
67196;DHT22;54122;53.538;49.366;2022-07-01T15:06:30;15.30;87.00
67196;DHT22;54122;53.538;49.366;2022-07-01T15:08:56;15.30;88.80
67196;DHT22;54122;53.538;49.366;2022-07-01T15:11:22;15.30;87.40
67196;DHT22;54122;53.538;49.366;2022-07-01T15:13:51;15.30;87.70
67196;DHT22;54122;53.538;49.366;2022-07-01T15:16:17;15.20;87.80
67196;DHT22;54122;53.538;49.366;2022-07-01T15:18:44;15.20;88.70
67196;DHT22;54122;53.538;49.366;2022-07-01T15:21:10;15.20;89.50
67196;DHT22;54122;53.538;49.366;2022-07-01T15:23:37;15.10;90.00
67196;DHT22;54122;53.538;49.366;2022-07-01T15:26:03;15.20;90.20
67196;DHT22;54122;53.538;49.366;2022-07-01T15:28:29;15.20;90.30
67196;DHT22;54122;53.538;49.366;2022-07-01T15:30:56;15.20;90.50
67196;DHT22;54122;53.538;49.366;2022-07-01T15:33:22;15.20;90.60
67196;DHT22;54122;53.538;49.366;2022-07-01T15:35:48;15.30;90.70
67196;DHT22;54122;53.538;49.366;2022-07-01T15:38:14;15.30;90.80
67196;DHT22;54122;53.538;49.366;2022-07-01T15:40:40;15.30;90.80
67196;DHT22;54122;53.538;49.366;2022-07-01T15:43:07;15.40;90.70
67196;DHT22;54122;53.538;49.366;2022-07-01T15:45:34;15.40;90.60